Time;durP1;ratioP1;P1;durP2;ratioP2;P2;SDS_P1;SDS_P2;PMS_P1;PMS_P2;Temp;Humidity;BMP_temperature;BMP_pressure;BME280_temperature;BME280_humidity;BME280_pressure;Samples;Min_cycle;Max_cycle;Signal;HPM_P1;HPM_P2
2022/12/04 00:01:54;;;;;;;68.63;37.73;;;;;;;1.00;100.00;101684.16;5164980;28;20238;-69
2022/12/04 00:04:25;;;;;;;66.80;35.63;;;;;;;0.95;100.00;101677.31;5166793;28;20023;-69
2022/12/04 00:06:56;;;;;;;73.23;39.67;;;;;;;1.01;100.00;101679.00;5165985;28;20038;-69
2022/12/04 00:09:28;;;;;;;66.83;37.30;;;;;;;0.86;100.00;101668.75;5165397;28;20031;-69
2022/12/04 00:11:59;;;;;;;68.73;38.37;;;;;;;0.79;100.00;101679.13;5165757;28;20154;-69
2022/12/04 00:14:30;;;;;;;68.40;39.30;;;;;;;0.71;100.00;101662.84;5166104;28;20056;-70
2022/12/04 00:17:02;;;;;;;62.00;36.97;;;;;;;0.87;100.00;101670.50;5166235;28;20458;-70
2022/12/04 00:19:33;;;;;;;64.00;38.77;;;;;;;0.98;100.00;101667.84;5165709;28;20026;-69
2022/12/04 00:22:04;;;;;;;70.20;37.33;;;;;;;0.91;100.00;101665.28;5164619;28;20038;-69
2022/12/04 00:24:36;;;;;;;71.03;37.03;;;;;;;0.93;100.00;101667.84;5163637;28;20034;-68
2022/12/04 00:27:07;;;;;;;73.53;38.27;;;;;;;1.04;100.00;101666.09;5164097;28;20542;-69
2022/12/04 00:29:38;;;;;;;69.70;37.43;;;;;;;0.94;100.00;101662.69;5163810;28;20027;-69
2022/12/04 00:32:09;;;;;;;62.57;37.03;;;;;;;0.82;100.00;101657.63;5163486;28;20062;-69
2022/12/04 00:34:41;;;;;;;65.03;36.23;;;;;;;0.88;100.00;101662.75;5162024;28;20105;-68
2022/12/04 00:37:12;;;;;;;74.13;38.27;;;;;;;0.90;100.00;101662.72;5163413;28;20034;-71
2022/12/04 00:39:43;;;;;;;68.00;37.47;;;;;;;0.89;100.00;101668.75;5163612;28;20125;-69
2022/12/04 00:42:14;;;;;;;66.13;36.63;;;;;;;0.91;100.00;101665.28;5164402;28;20039;-69
2022/12/04 00:44:46;;;;;;;66.83;37.63;;;;;;;0.86;100.00;101661.88;5164533;28;20039;-69
2022/12/04 00:47:17;;;;;;;65.57;37.53;;;;;;;0.80;100.00;101657.59;5164687;28;20027;-69
2022/12/04 00:49:49;;;;;;;67.47;38.80;;;;;;;0.76;100.00;101657.63;5165632;28;20130;-69
2022/12/04 00:52:20;;;;;;;64.93;37.27;;;;;;;0.80;100.00;101654.19;5163824;28;20367;-69
2022/12/04 00:54:51;;;;;;;65.30;37.13;;;;;;;0.91;100.00;101657.56;5162938;28;20037;-69
2022/12/04 00:57:22;;;;;;;74.03;37.83;;;;;;;0.86;100.00;101659.31;5164913;28;20082;-68
2022/12/04 00:59:54;;;;;;;65.90;37.90;;;;;;;0.71;100.00;101653.38;5162464;28;20089;-68
2022/12/04 01:02:25;;;;;;;65.20;36.80;;;;;;;0.87;100.00;101655.88;5164037;28;20110;-68
2022/12/04 01:04:56;;;;;;;69.13;38.00;;;;;;;0.86;100.00;101661.88;5157334;28;20501;-68
2022/12/04 01:07:28;;;;;;;62.17;35.57;;;;;;;0.78;100.00;101668.81;5171974;28;20033;-68
2022/12/04 01:09:59;;;;;;;67.20;37.20;;;;;;;0.88;100.00;101669.59;5158892;28;20054;-69
2022/12/04 01:12:30;;;;;;;62.07;35.90;;;;;;;0.86;100.00;101664.47;5163029;28;20029;-68
2022/12/04 01:15:03;;;;;;;65.07;37.30;;;;;;;0.95;100.00;101674.75;5159949;28;20035;-69
2022/12/04 01:17:34;;;;;;;67.10;37.67;;;;;;;0.98;100.00;101668.69;5161554;28;20030;-69
2022/12/04 01:20:06;;;;;;;66.57;38.07;;;;;;;0.92;100.00;101667.03;5169915;28;20034;-69
2022/12/04 01:22:37;;;;;;;62.03;38.07;;;;;;;0.77;100.00;101672.28;5173969;28;20026;-69
2022/12/04 01:25:09;;;;;;;64.17;36.10;;;;;;;0.73;100.00;101668.84;5175800;28;20022;-69
2022/12/04 01:27:40;;;;;;;62.63;38.10;;;;;;;0.89;100.00;101672.19;5173244;28;20034;-69
2022/12/04 01:30:12;;;;;;;64.63;38.70;;;;;;;0.94;100.00;101674.75;5173386;28;20477;-69
2022/12/04 01:32:43;;;;;;;66.47;37.07;;;;;;;0.90;100.00;101676.50;5171870;28;20482;-70
2022/12/04 01:35:14;;;;;;;64.23;36.27;;;;;;;1.00;100.00;101679.00;5173604;28;20033;-69
2022/12/04 01:37:46;;;;;;;60.87;36.03;;;;;;;0.89;100.00;101679.91;5180734;28;20076;-70
2022/12/04 01:40:17;;;;;;;68.07;38.20;;;;;;;0.91;100.00;101665.28;5174666;28;20089;-68
2022/12/04 01:42:48;;;;;;;66.63;37.00;;;;;;;0.91;100.00;101678.19;5173588;28;20086;-69
2022/12/04 01:45:49;;;;;;;67.33;38.77;;;;;;;0.93;100.00;101673.88;5173815;28;20035;-68
2022/12/04 01:48:27;;;;;;;62.53;38.33;;;;;;;0.93;100.00;101667.84;5171992;28;20022;-68
2022/12/04 01:51:05;;;;;;;63.23;38.27;;;;;;;0.92;100.00;101669.59;5187138;28;20057;-69
2022/12/04 01:53:39;;;;;;;63.17;37.60;;;;;;;0.88;100.00;101660.16;5173076;28;20031;-68
2022/12/04 01:56:10;;;;;;;59.53;35.97;;;;;;;0.90;100.00;101665.31;5170983;28;20054;-68
2022/12/04 01:58:47;;;;;;;66.70;38.90;;;;;;;0.99;100.00;101659.22;5173240;28;20030;-68
2022/12/04 02:01:19;;;;;;;63.40;36.47;;;;;;;0.87;100.00;101655.00;5171473;28;20077;-69
2022/12/04 02:03:50;;;;;;;61.83;37.37;;;;;;;0.91;100.00;101646.41;5173702;28;20027;-69
2022/12/04 02:06:21;;;;;;;60.93;36.23;;;;;;;0.94;100.00;101648.94;5173996;28;20047;-69
2022/12/04 02:08:53;;;;;;;61.33;36.40;;;;;;;0.78;100.00;101646.47;5171932;28;20539;-67
2022/12/04 02:11:38;;;;;;;61.63;36.73;;;;;;;0.78;100.00;101655.91;5175222;28;20474;-68
2022/12/04 02:14:30;;;;;;;63.70;37.42;;;;;;;0.91;100.00;101647.25;5172278;28;20073;-66
2022/12/04 02:17:17;;;;;;;62.43;36.27;;;;;;;0.87;100.00;101650.72;5172332;28;20033;-67
2022/12/04 02:20:08;;;;;;;64.27;36.80;;;;;;;0.82;100.00;101650.72;5168027;28;20045;-67
2022/12/04 02:23:01;;;;;;;65.07;39.83;;;;;;;0.90;100.00;101653.28;5161578;28;20117;-68
2022/12/04 02:26:00;;;;;;;65.53;38.20;;;;;;;0.93;100.00;101654.97;5174069;28;20034;-68
2022/12/04 02:28:52;;;;;;;62.27;36.90;;;;;;;0.92;100.00;101656.72;5191151;28;20118;-67
2022/12/04 02:31:35;;;;;;;62.20;37.77;;;;;;;1.01;100.00;101657.50;5177477;28;20038;-68
2022/12/04 02:34:28;;;;;;;64.87;37.40;;;;;;;0.87;100.00;101645.56;5175420;28;20034;-69
2022/12/04 02:37:07;;;;;;;61.93;37.33;;;;;;;0.85;100.00;101644.72;5175603;28;20085;-68
2022/12/04 02:39:48;;;;;;;63.07;37.70;;;;;;;0.90;100.00;101649.81;5176182;28;20041;-68
2022/12/04 02:42:31;;;;;;;60.87;39.53;;;;;;;0.80;100.00;101646.47;5185304;28;20509;-68
2022/12/04 02:45:08;;;;;;;62.13;36.47;;;;;;;0.82;100.00;101652.47;5181030;28;20493;-67
2022/12/04 02:47:43;;;;;;;64.10;36.90;;;;;;;0.86;100.00;101653.28;5177069;28;20481;-68
2022/12/04 02:50:17;;;;;;;64.60;38.88;;;;;;;0.89;100.00;101643.81;5176999;28;20470;-69
2022/12/04 02:52:55;;;;;;;61.13;38.75;;;;;;;0.82;100.00;101632.66;5167708;28;20082;-70
2022/12/04 02:55:52;;;;;;;61.53;38.23;;;;;;;0.98;100.00;101640.31;5173852;28;20410;-70
2022/12/04 02:58:33;;;;;;;64.67;39.13;;;;;;;0.92;100.00;101638.66;5168592;28;20054;-69
2022/12/04 03:01:19;;;;;;;65.23;37.60;;;;;;;0.93;100.00;101636.91;5176772;28;20165;-70
2022/12/04 03:03:58;;;;;;;62.50;37.83;;;;;;;0.92;100.00;101635.22;5172998;28;20031;-71
2022/12/04 03:06:34;;;;;;;64.87;40.00;;;;;;;0.75;100.00;101636.16;5176544;28;20077;-70
2022/12/04 03:09:20;;;;;;;67.23;38.13;;;;;;;0.85;100.00;101642.13;5178967;28;20381;-70
2022/12/04 03:12:03;;;;;;;63.83;38.93;;;;;;;0.84;100.00;101630.06;5182373;28;20027;-70
2022/12/04 03:14:41;;;;;;;63.30;40.27;;;;;;;0.86;100.00;101635.22;5176743;28;20117;-68
2022/12/04 03:17:20;;;;;;;64.27;38.67;;;;;;;0.84;100.00;101645.56;5162801;28;20027;-69
2022/12/04 03:19:59;;;;;;;70.20;41.10;;;;;;;0.69;100.00;101641.34;5176319;28;20039;-69
2022/12/04 03:22:35;;;;;;;61.40;38.67;;;;;;;0.77;100.00;101639.59;5176303;28;20019;-69
2022/12/04 03:25:08;;;;;;;66.77;40.87;;;;;;;0.62;100.00;101635.38;5175312;28;20394;-69
2022/12/04 03:28:00;;;;;;;61.70;39.03;;;;;;;0.68;100.00;101634.50;5176649;28;20019;-69
2022/12/04 03:30:42;;;;;;;71.27;40.63;;;;;;;0.63;100.00;101631.09;5174882;28;20038;-69
2022/12/04 03:33:28;;;;;;;66.80;40.27;;;;;;;0.63;100.00;101637.06;5173540;28;20031;-70
2022/12/04 03:36:23;;;;;;;68.57;40.67;;;;;;;0.74;100.00;101631.00;5174918;28;20059;-70
2022/12/04 03:39:10;;;;;;;;;;;;;;;0.87;100.00;101632.66;5172205;28;20107;-70
2022/12/04 03:42:20;;;;;;;65.87;39.53;;;;;;;0.71;100.00;101635.34;5172169;28;20004;-70
2022/12/04 03:45:09;;;;;;;63.10;39.33;;;;;;;0.64;100.00;101628.50;5190355;28;20079;-70
2022/12/04 03:47:55;;;;;;;69.80;40.73;;;;;;;0.66;100.00;101619.03;5168695;28;20039;-70
2022/12/04 03:50:38;;;;;;;67.13;40.73;;;;;;;0.62;100.00;101622.47;5162156;28;20034;-70
2022/12/04 03:53:20;;;;;;;67.23;39.30;;;;;;;0.72;100.00;101625.84;5183325;28;20386;-70
2022/12/04 03:56:10;;;;;;;70.53;40.80;;;;;;;0.75;100.00;101630.16;5173843;28;20736;-70
2022/12/04 03:58:47;;;;;;;64.90;40.43;;;;;;;0.54;100.00;101617.34;5173569;28;20053;-70
2022/12/04 04:01:24;;;;;;;67.43;40.30;;;;;;;0.62;100.00;101627.63;5175779;28;20497;-70
2022/12/04 04:03:57;;;;;;;70.30;41.40;;;;;;;0.70;100.00;101623.28;5180871;28;20109;-70
2022/12/04 04:06:39;;;;;;;63.53;39.47;;;;;;;0.64;100.00;101620.75;5183455;28;20525;-70
2022/12/04 04:09:18;;;;;;;64.47;39.30;;;;;;;0.62;100.00;101622.47;5172308;28;20468;-70
2022/12/04 04:12:01;;;;;;;64.37;40.40;;;;;;;0.60;100.00;101622.50;5175269;28;20474;-71
2022/12/04 04:26:15;;;;;;;70.67;42.60;;;;;;;0.56;100.00;101618.22;5162320;28;20038;-70
2022/12/04 04:28:46;;;;;;;66.17;39.17;;;;;;;0.42;100.00;101602.81;5172723;28;20053;-69
2022/12/04 04:31:44;;;;;;;72.23;42.30;;;;;;;0.62;100.00;101627.63;5158806;28;20050;-69
2022/12/04 04:34:26;;;;;;;69.13;41.50;;;;;;;0.48;100.00;101613.09;5171059;28;20093;-70
2022/12/04 04:37:05;;;;;;;71.33;41.17;;;;;;;0.61;100.00;101613.06;5166075;28;20055;-69
2022/12/04 04:39:53;;;;;;;74.17;41.73;;;;;;;0.67;100.00;101613.00;5173057;28;20034;-69
2022/12/04 04:42:29;;;;;;;66.37;41.53;;;;;;;0.42;100.00;101597.66;5168759;28;20077;-69
2022/12/04 04:45:07;;;;;;;67.40;39.67;;;;;;;0.57;100.00;101619.06;5173612;28;20031;-68
2022/12/04 04:47:51;;;;;;;69.67;41.27;;;;;;;0.72;100.00;101624.16;5173593;28;20055;-69
2022/12/04 04:50:23;;;;;;;64.93;41.85;;;;;;;0.52;100.00;101621.69;5173648;28;20382;-69
2022/12/04 04:53:00;;;;;;;67.37;41.30;;;;;;;0.55;100.00;101620.78;5174362;28;20055;-69
2022/12/04 04:55:33;;;;;;;65.40;39.57;;;;;;;0.65;100.00;101622.47;5174133;28;20029;-69
2022/12/04 04:58:11;;;;;;;67.87;40.37;;;;;;;0.68;100.00;101622.44;5168976;28;20134;-69
2022/12/04 05:01:11;;;;;;;68.47;39.43;;;;;;;0.71;100.00;101629.31;5162915;28;20038;-69
2022/12/04 05:03:42;;;;;;;68.60;39.90;;;;;;;0.54;100.00;101625.09;5173578;28;20050;-69
2022/12/04 05:06:14;;;;;;;65.07;41.97;;;;;;;0.65;100.00;101630.19;5172707;28;20031;-69
2022/12/04 05:08:48;;;;;;;67.60;40.80;;;;;;;0.61;100.00;101623.38;5173257;28;20114;-69
2022/12/04 05:11:19;;;;;;;71.83;40.73;;;;;;;0.67;100.00;101628.47;5174595;28;20078;-67
2022/12/04 05:13:50;;;;;;;66.50;40.40;;;;;;;0.82;100.00;101629.25;5173771;28;20034;-69
2022/12/04 05:16:22;;;;;;;67.03;41.53;;;;;;;0.71;100.00;101626.75;5165825;28;20054;-69
2022/12/04 05:21:43;;;;;;;65.70;40.70;;;;;;;0.62;100.00;101630.22;5173116;28;20394;-69
2022/12/04 05:24:14;;;;;;;65.90;40.30;;;;;;;0.53;100.00;101628.53;5173686;28;20022;-69
2022/12/04 05:26:45;;;;;;;62.53;39.53;;;;;;;0.58;100.00;101623.34;5172436;28;20027;-69
2022/12/04 05:29:17;;;;;;;67.43;41.57;;;;;;;0.53;100.00;101627.69;5186695;28;20113;-70
2022/12/04 05:31:48;;;;;;;64.43;39.20;;;;;;;0.51;100.00;101629.44;5174142;28;20035;-70
2022/12/04 05:34:19;;;;;;;70.23;43.70;;;;;;;0.66;100.00;101626.78;5173674;28;20039;-70
2022/12/04 05:36:51;;;;;;;65.20;41.23;;;;;;;0.57;100.00;101624.22;5173891;28;20058;-70
2022/12/04 05:39:22;;;;;;;66.10;41.83;;;;;;;0.57;100.00;101625.09;5172565;28;20033;-70
2022/12/04 05:41:54;;;;;;;67.23;41.63;;;;;;;0.65;100.00;101624.16;5176252;28;20034;-69
2022/12/04 05:44:25;;;;;;;68.00;40.93;;;;;;;0.57;100.00;101624.22;5178984;28;20087;-70
2022/12/04 05:46:56;;;;;;;67.17;39.30;;;;;;;0.69;100.00;101616.44;5173482;28;20027;-70
2022/12/04 05:49:29;;;;;;;67.53;40.33;;;;;;;0.69;100.00;101613.84;5172565;28;20041;-70
2022/12/04 05:52:02;;;;;;;66.37;41.27;;;;;;;0.63;100.00;101616.44;5173369;28;20026;-70
2022/12/04 05:54:33;;;;;;;65.87;40.20;;;;;;;0.71;100.00;101614.72;5164151;28;20035;-70
2022/12/04 05:57:04;;;;;;;63.57;39.90;;;;;;;0.71;100.00;101609.56;5161449;28;20065;-69
2022/12/04 05:59:36;;;;;;;71.83;41.60;;;;;;;0.69;100.00;101598.38;5181876;28;20027;-70
2022/12/04 06:02:07;;;;;;;67.93;39.00;;;;;;;0.68;100.00;101611.28;5171399;28;20063;-70
2022/12/04 06:04:38;;;;;;;69.70;41.40;;;;;;;0.65;100.00;101613.84;5170482;28;20038;-70
2022/12/04 06:07:10;;;;;;;67.90;42.80;;;;;;;0.74;100.00;101606.09;5170287;28;20043;-70
2022/12/04 06:09:41;;;;;;;63.40;39.93;;;;;;;0.78;100.00;101599.19;5170025;28;20070;-69
2022/12/04 06:12:12;;;;;;;64.80;38.60;;;;;;;0.72;100.00;101603.50;5176502;28;20035;-70
2022/12/04 06:14:44;;;;;;;63.33;39.57;;;;;;;0.79;100.00;101593.16;5177351;28;20027;-70
2022/12/04 06:17:15;;;;;;;66.67;39.93;;;;;;;0.73;100.00;101604.38;5173544;28;20046;-70
2022/12/04 06:19:46;;;;;;;70.17;40.13;;;;;;;0.90;100.00;101604.25;5169851;28;20066;-70
2022/12/04 06:22:18;;;;;;;71.67;42.07;;;;;;;0.62;100.00;101607.00;5174637;28;20061;-70
2022/12/04 06:24:49;;;;;;;72.00;39.37;;;;;;;0.69;100.00;101606.13;5160070;28;20370;-70
2022/12/04 06:27:20;;;;;;;66.93;41.70;;;;;;;0.63;100.00;101608.72;5170337;28;20038;-69
2022/12/04 06:29:52;;;;;;;73.60;43.80;;;;;;;0.73;100.00;101612.13;5175265;28;20143;-70
2022/12/04 06:32:23;;;;;;;69.53;43.63;;;;;;;0.67;100.00;101612.13;5177624;28;20030;-70
2022/12/04 06:34:55;;;;;;;64.40;40.23;;;;;;;0.71;100.00;101617.28;5176471;28;20042;-70
2022/12/04 06:37:26;;;;;;;61.60;40.47;;;;;;;0.60;100.00;101606.16;5173508;28;20039;-70
2022/12/04 06:39:57;;;;;;;66.63;40.53;;;;;;;0.71;100.00;101613.84;5175679;28;20422;-70
2022/12/04 06:42:28;;;;;;;66.60;39.97;;;;;;;0.66;100.00;101615.59;5189771;28;20113;-70
2022/12/04 06:45:00;;;;;;;68.53;40.33;;;;;;;0.70;100.00;101619.84;5174916;28;20023;-70
2022/12/04 06:47:33;;;;;;;65.83;40.67;;;;;;;0.74;100.00;101613.81;5169975;28;20041;-70
2022/12/04 06:50:05;;;;;;;71.83;42.87;;;;;;;0.63;100.00;101611.28;5166414;28;20440;-70
2022/12/04 06:52:36;;;;;;;68.50;40.90;;;;;;;0.74;100.00;101612.94;5175777;28;20431;-70
2022/12/04 06:55:08;;;;;;;68.80;41.63;;;;;;;0.78;100.00;101619.81;5174442;28;20066;-70
2022/12/04 06:57:39;;;;;;;66.13;39.97;;;;;;;0.75;100.00;101623.25;5172063;28;20490;-70
2022/12/04 07:00:11;;;;;;;65.20;39.07;;;;;;;0.69;100.00;101616.44;5175029;28;20106;-69
2022/12/04 07:02:42;;;;;;;70.20;41.27;;;;;;;0.68;100.00;101619.84;5176535;28;20533;-69
2022/12/04 07:05:13;;;;;;;68.27;41.93;;;;;;;0.62;100.00;101629.34;5170877;28;20026;-70
2022/12/04 07:07:45;;;;;;;66.47;40.90;;;;;;;0.71;100.00;101632.75;5170980;28;20525;-70
2022/12/04 07:10:16;;;;;;;65.40;39.90;;;;;;;0.70;100.00;101627.59;5173342;28;20657;-70
2022/12/04 07:12:47;;;;;;;64.10;38.70;;;;;;;0.71;100.00;101635.34;5165858;28;20537;-70
2022/12/04 07:15:18;;;;;;;64.03;40.50;;;;;;;0.63;100.00;101631.09;5174262;28;20466;-69
2022/12/04 07:17:50;;;;;;;66.17;40.80;;;;;;;0.79;100.00;101637.00;5176535;28;20496;-70
2022/12/04 07:20:21;;;;;;;68.63;41.10;;;;;;;0.69;100.00;101643.94;5175522;28;20026;-69
2022/12/04 07:22:52;;;;;;;62.70;40.00;;;;;;;0.72;100.00;101641.31;5175080;28;20062;-70
2022/12/04 07:25:23;;;;;;;62.03;40.17;;;;;;;0.74;100.00;101642.19;5164846;28;20030;-69
2022/12/04 07:27:55;;;;;;;65.53;41.03;;;;;;;0.77;100.00;101649.06;5170568;28;20049;-70
2022/12/04 07:30:26;;;;;;;65.70;40.33;;;;;;;0.66;100.00;101646.53;5175954;28;20034;-70
2022/12/04 07:32:57;;;;;;;61.83;38.77;;;;;;;0.68;100.00;101645.66;5176096;28;20502;-70
2022/12/04 07:35:29;;;;;;;66.13;40.40;;;;;;;0.79;100.00;101647.31;5176462;28;20538;-70
2022/12/04 07:38:00;;;;;;;58.57;37.37;;;;;;;0.66;100.00;101647.41;5170305;28;20035;-69
2022/12/04 07:40:31;;;;;;;63.07;39.47;;;;;;;0.76;100.00;101644.75;5168334;28;20043;-69
2022/12/04 07:43:03;;;;;;;64.30;38.23;;;;;;;0.70;100.00;101653.38;5173125;28;20043;-70
2022/12/04 07:45:35;;;;;;;61.97;38.10;;;;;;;0.88;100.00;101651.56;5168624;28;20029;-70
2022/12/04 07:48:07;;;;;;;60.53;37.87;;;;;;;0.71;100.00;101647.38;5173200;28;20450;-70
2022/12/04 07:50:38;;;;;;;58.57;37.87;;;;;;;0.75;100.00;101651.63;5165286;28;20039;-70
2022/12/04 07:53:09;;;;;;;59.30;34.80;;;;;;;0.76;100.00;101648.19;5171210;28;20077;-70
2022/12/04 07:55:41;;;;;;;56.07;36.80;;;;;;;0.84;100.00;101651.56;5172754;28;20019;-70
2022/12/04 07:58:12;;;;;;;54.63;34.27;;;;;;;0.76;100.00;101658.50;5174993;28;20038;-70
2022/12/04 08:00:44;;;;;;;56.43;34.83;;;;;;;0.63;100.00;101660.28;5175922;28;20374;-70
2022/12/04 08:03:15;;;;;;;57.00;35.30;;;;;;;0.77;100.00;101655.06;5175693;28;20721;-70
2022/12/04 08:05:46;;;;;;;55.23;36.33;;;;;;;0.67;100.00;101659.41;5175428;28;20054;-70
2022/12/04 08:08:17;;;;;;;55.83;34.77;;;;;;;0.63;100.00;101649.13;5174722;28;20047;-70
2022/12/04 08:10:49;;;;;;;56.30;36.37;;;;;;;0.73;100.00;101655.94;5173550;28;20055;-70
2022/12/04 08:13:20;;;;;;;54.77;34.60;;;;;;;0.77;100.00;101655.06;5170725;28;20031;-70
2022/12/04 08:15:51;;;;;;;53.37;35.37;;;;;;;0.75;100.00;101666.25;5160435;28;20027;-70
2022/12/04 08:18:22;;;;;;;56.97;34.63;;;;;;;0.65;100.00;101665.44;5165045;28;20161;-70
2022/12/04 08:21:00;;;;;;;52.33;33.30;;;;;;;0.75;100.00;101661.09;5159907;28;20027;-70
2022/12/04 08:23:32;;;;;;;50.43;33.77;;;;;;;0.72;100.00;101672.28;5167657;28;20066;-70
2022/12/04 08:26:04;;;;;;;52.03;33.77;;;;;;;0.76;100.00;101675.69;5173409;28;20054;-70
2022/12/04 08:28:36;;;;;;;53.97;32.27;;;;;;;0.67;100.00;101672.31;5173417;28;20038;-70
2022/12/04 08:31:12;;;;;;;49.40;33.17;;;;;;;0.72;100.00;101670.56;5159164;28;20031;-70
2022/12/04 08:33:44;;;;;;;48.90;31.17;;;;;;;0.82;100.00;101673.09;5164970;28;20534;-70
2022/12/04 08:36:18;;;;;;;50.77;32.40;;;;;;;0.69;100.00;101665.44;5159421;28;20046;-70
2022/12/04 08:38:50;;;;;;;47.53;31.77;;;;;;;0.78;100.00;101661.06;5159525;28;20027;-70
2022/12/04 08:41:23;;;;;;;47.73;30.73;;;;;;;0.75;100.00;101666.25;5164085;28;20727;-70
2022/12/04 08:43:55;;;;;;;52.00;34.00;;;;;;;0.75;100.00;101664.50;5174822;28;20027;-70
2022/12/04 08:46:27;;;;;;;45.10;30.17;;;;;;;0.71;100.00;101661.13;5174392;28;20655;-69
2022/12/04 08:48:59;;;;;;;48.70;30.63;;;;;;;0.83;100.00;101659.31;5171748;28;20102;-70
2022/12/04 08:51:35;;;;;;;48.53;31.07;;;;;;;0.77;100.00;101655.06;5161602;28;20030;-69
2022/12/04 08:54:07;;;;;;;41.90;28.27;;;;;;;0.77;100.00;101654.22;5173412;28;20069;-70
2022/12/04 08:56:39;;;;;;;44.77;28.80;;;;;;;0.92;100.00;101659.28;5172399;28;20051;-69
2022/12/04 08:59:12;;;;;;;48.67;30.13;;;;;;;0.82;100.00;101655.06;5171045;28;20045;-70
2022/12/04 09:01:43;;;;;;;44.00;28.17;;;;;;;0.75;100.00;101658.53;5171166;28;20483;-69
2022/12/04 09:04:14;;;;;;;44.27;29.63;;;;;;;0.83;100.00;101654.16;5169277;28;20033;-69
2022/12/04 09:06:46;;;;;;;44.37;29.67;;;;;;;0.77;100.00;101642.16;5172604;28;20018;-69
2022/12/04 09:09:17;;;;;;;44.37;29.43;;;;;;;0.87;100.00;101650.72;5173544;28;20030;-69
2022/12/04 09:11:48;;;;;;;44.23;28.47;;;;;;;1.00;100.00;101661.81;5173814;28;20023;-70
2022/12/04 09:14:24;;;;;;;39.33;27.57;;;;;;;1.01;100.00;101663.53;5174713;28;20023;-69
2022/12/04 09:16:55;;;;;;;40.13;25.93;;;;;;;0.90;100.00;101640.38;5174068;28;20134;-69
2022/12/04 09:19:27;;;;;;;41.30;27.57;;;;;;;0.99;100.00;101654.94;5164361;28;20482;-69
2022/12/04 09:21:58;;;;;;;44.03;28.63;;;;;;;0.95;100.00;101661.84;5160033;28;20091;-69
2022/12/04 09:24:29;;;;;;;39.37;25.43;;;;;;;1.02;100.00;101662.66;5168769;28;20038;-70
2022/12/04 09:27:01;;;;;;;37.37;25.57;;;;;;;1.00;100.00;101668.66;5171578;28;20090;-72
2022/12/04 09:29:32;;;;;;;38.10;26.23;;;;;;;0.94;100.00;101667.84;5169590;28;20094;-74
2022/12/04 09:32:03;;;;;;;37.00;24.87;;;;;;;1.01;100.00;101654.94;5169364;28;20058;-70
2022/12/04 09:34:35;;;;;;;36.80;25.13;;;;;;;1.13;100.00;101675.50;5168409;28;20030;-70
2022/12/04 09:37:06;;;;;;;40.27;26.97;;;;;;;1.13;100.00;101669.47;5173522;28;20344;-70
2022/12/04 09:39:37;;;;;;;34.53;23.73;;;;;;;1.23;100.00;101670.25;5167965;28;20073;-70
2022/12/04 09:42:28;;;;;;;38.07;25.33;;;;;;;1.26;100.00;101657.31;5170135;28;20418;-70
2022/12/04 09:45:17;;;;;;;38.23;24.30;;;;;;;1.25;100.00;101671.09;5167026;28;20505;-70
2022/12/04 09:47:55;;;;;;;36.43;25.37;;;;;;;1.24;100.00;101669.41;5160853;28;20035;-70
2022/12/04 09:50:41;;;;;;;35.30;24.17;;;;;;;1.18;100.00;101668.56;5160285;28;20027;-69
2022/12/04 09:53:25;;;;;;;33.63;21.87;;;;;;;0.98;100.00;101644.63;5168482;28;20062;-70
2022/12/04 09:55:56;;;;;;;34.37;23.00;;;;;;;1.07;100.00;101672.94;5168170;28;20031;-69
2022/12/04 09:58:39;;;;;;;35.63;23.23;;;;;;;1.07;100.00;101673.81;5170627;28;20509;-70
2022/12/04 10:01:20;;;;;;;34.83;23.20;;;;;;;1.12;100.00;101676.34;5165925;28;20378;-68
2022/12/04 10:03:53;;;;;;;35.73;24.83;;;;;;;1.01;100.00;101688.47;5171753;28;20077;-69
2022/12/04 10:06:31;;;;;;;34.70;23.13;;;;;;;0.99;100.00;101674.72;5173051;28;20805;-70
2022/12/04 10:09:21;;;;;;;34.63;21.87;;;;;;;1.08;100.00;101672.91;5168825;28;20030;-68
2022/12/04 10:12:12;;;;;;;34.57;22.93;;;;;;;1.20;100.00;101677.13;5167746;28;20381;-68
2022/12/04 10:15:06;;;;;;;34.07;21.27;;;;;;;1.23;100.00;101678.84;5170209;28;20034;-70
2022/12/04 10:18:02;;;;;;;30.63;21.77;;;;;;;1.26;100.00;101678.81;5170590;28;20062;-73
2022/12/04 10:20:52;;;;;;;32.43;22.00;;;;;;;1.08;100.00;101665.19;5172224;28;20026;-70
2022/12/04 10:23:43;;;;;;;35.47;24.23;;;;;;;0.96;100.00;101663.53;5170055;28;20039;-68
2022/12/04 10:26:17;;;;;;;35.70;22.00;;;;;;;0.87;100.00;101665.34;5160510;28;20043;-69
2022/12/04 10:28:58;;;;;;;30.85;19.95;;;;;;;1.05;100.00;101669.50;5169479;28;20537;-69
2022/12/04 10:31:32;;;;;;;35.43;22.93;;;;;;;0.84;100.00;101666.19;5166618;28;20042;-69
2022/12/04 10:34:16;;;;;;;33.28;21.85;;;;;;;0.80;100.00;101665.34;5161856;28;20067;-68
2022/12/04 10:36:54;;;;;;;33.20;22.60;;;;;;;0.82;100.00;101667.94;5168710;28;20473;-70
2022/12/04 10:39:33;;;;;;;33.67;22.17;;;;;;;0.95;100.00;101669.56;5167667;28;20035;-69
2022/12/04 10:42:22;;;;;;;31.30;20.90;;;;;;;0.82;100.00;101673.09;5170215;28;20030;-71
2022/12/04 10:44:54;;;;;;;35.33;21.83;;;;;;;0.87;100.00;101666.19;5168466;28;20114;-70
2022/12/04 10:47:26;;;;;;;33.73;23.63;;;;;;;0.87;100.00;101671.34;5172300;28;20114;-71
2022/12/04 10:50:01;;;;;;;34.60;22.83;;;;;;;0.94;100.00;101674.75;5171776;28;20042;-71
2022/12/04 10:52:32;;;;;;;35.70;22.73;;;;;;;0.93;100.00;101666.16;5173042;28;20041;-71
2022/12/04 10:55:03;;;;;;;33.43;22.40;;;;;;;0.91;100.00;101665.28;5171963;28;20409;-73
2022/12/04 10:57:35;;;;;;;36.77;21.93;;;;;;;0.96;100.00;101660.97;5173518;28;20414;-79
2022/12/04 11:00:38;;;;;;;33.83;22.67;;;;;;;1.08;100.00;101659.19;5165927;28;20030;-72
2022/12/04 11:03:24;;;;;;;33.90;22.07;;;;;;;1.11;100.00;101648.84;5169723;28;20058;-70
2022/12/04 11:06:07;;;;;;;33.67;21.50;;;;;;;1.17;100.00;101655.69;5158400;28;20106;-69
2022/12/04 11:08:42;;;;;;;32.77;22.20;;;;;;;1.09;100.00;101653.16;5167218;28;20517;-70
2022/12/04 11:11:21;;;;;;;37.23;22.67;;;;;;;1.18;100.00;101654.81;5172846;28;20051;-71
2022/12/04 11:14:06;;;;;;;30.40;21.73;;;;;;;1.07;100.00;101644.56;5171417;28;20078;-70
2022/12/04 11:16:43;;;;;;;32.00;22.40;;;;;;;1.07;100.00;101653.16;5173341;28;20030;-73
2022/12/04 11:19:23;;;;;;;34.97;22.37;;;;;;;1.07;100.00;101639.41;5172764;28;20138;-73
2022/12/04 11:22:04;;;;;;;35.50;22.90;;;;;;;1.04;100.00;101635.13;5173717;28;20683;-74
2022/12/04 11:24:37;;;;;;;31.87;22.57;;;;;;;1.02;100.00;101630.81;5165020;28;20509;-72
2022/12/04 11:27:21;;;;;;;30.97;22.23;;;;;;;0.99;100.00;101625.69;5175803;28;20039;-71
2022/12/04 11:29:53;;;;;;;34.40;21.90;;;;;;;0.93;100.00;101627.44;5170551;28;20445;-71
2022/12/04 11:32:29;;;;;;;30.90;21.83;;;;;;;0.96;100.00;101614.53;5169464;28;20023;-71
2022/12/04 11:35:13;;;;;;;31.83;21.73;;;;;;;0.93;100.00;101629.16;5172679;28;20054;-70
2022/12/04 11:37:55;;;;;;;33.57;22.40;;;;;;;0.87;100.00;101634.38;5174857;28;20098;-70
2022/12/04 11:40:27;;;;;;;34.53;22.63;;;;;;;0.74;100.00;101624.13;5171782;28;20027;-70
2022/12/04 11:43:10;;;;;;;30.87;22.00;;;;;;;0.83;100.00;101625.81;5174418;28;20485;-70
2022/12/04 11:46:02;;;;;;;31.43;22.17;;;;;;;0.90;100.00;101622.31;5174276;28;20054;-71
2022/12/04 11:48:44;;;;;;;38.93;23.53;;;;;;;0.90;100.00;101619.75;5160458;28;20082;-71
2022/12/04 11:51:37;;;;;;;33.03;21.97;;;;;;;1.00;100.00;101629.97;5172615;28;20026;-71
2022/12/04 11:54:26;;;;;;;32.60;22.13;;;;;;;0.96;100.00;101629.16;5164498;28;20980;-70
2022/12/04 11:57:33;;;;;;;33.13;21.23;;;;;;;1.01;100.00;101621.38;5173961;28;20425;-70
2022/12/04 12:00:12;;;;;;;32.27;21.50;;;;;;;0.92;100.00;101630.91;5172726;28;20489;-70
2022/12/04 12:03:02;;;;;;;34.03;22.17;;;;;;;0.85;100.00;101631.81;5175709;28;20057;-70
2022/12/04 12:05:48;;;;;;;30.93;21.70;;;;;;;0.91;100.00;101615.44;5175729;28;20105;-71